Time;durP1;ratioP1;P1;durP2;ratioP2;P2;SDS_P1;SDS_P2;PMS_P1;PMS_P2;Temp;Humidity;BMP_temperature;BMP_pressure;BME280_temperature;BME280_humidity;BME280_pressure;Samples;Min_cycle;Max_cycle;Signal;HPM_P1;HPM_P2
2021/10/28 00:14:34;;;;;;;8.20;2.65;;;18.40;64.80;;;;;;5007196;28;20219;-52
2021/10/28 00:17:11;;;;;;;33.15;5.55;;;18.40;64.40;;;;;;5008061;28;20700;-51
2021/10/28 00:19:42;;;;;;;19.40;4.05;;;18.50;64.30;;;;;;4998134;28;20696;-46
2021/10/28 00:22:13;;;;;;;6.28;2.40;;;18.50;64.00;;;;;;4994920;28;20225;-56
2021/10/28 00:24:45;;;;;;;3.42;2.05;;;18.50;64.00;;;;;;4995072;28;20197;-45
2021/10/28 00:27:17;;;;;;;4.20;2.10;;;18.60;64.00;;;;;;5004016;28;20263;-53
2021/10/28 00:29:47;;;;;;;2.72;1.88;;;18.60;63.70;;;;;;5007725;28;20203;-51
2021/10/28 00:32:19;;;;;;;3.67;2.00;;;18.70;63.60;;;;;;5007898;28;21010;-45
2021/10/28 00:34:50;;;;;;;4.40;1.67;;;18.70;63.70;;;;;;5008873;28;20736;-45
2021/10/28 00:37:21;;;;;;;2.83;2.03;;;18.70;63.50;;;;;;5001204;28;20224;-45
2021/10/28 00:39:51;;;;;;;4.43;2.15;;;18.80;63.40;;;;;;5008626;28;20212;-43
2021/10/28 00:42:22;;;;;;;4.43;1.90;;;18.90;63.40;;;;;;4998041;28;20724;-42
2021/10/28 00:44:52;;;;;;;3.45;1.65;;;18.90;63.90;;;;;;5002405;28;20244;-44
2021/10/28 00:47:24;;;;;;;3.13;1.73;;;19.00;64.70;;;;;;5007611;28;20232;-40
2021/10/28 00:49:55;;;;;;;4.05;1.75;;;19.10;64.60;;;;;;5005215;28;20245;-41
2021/10/28 00:52:25;;;;;;;3.00;1.92;;;19.20;64.40;;;;;;5000741;28;20305;-43
2021/10/28 00:54:56;;;;;;;2.22;1.55;;;19.30;64.10;;;;;;5007784;28;20224;-45
2021/10/28 00:57:26;;;;;;;3.50;1.60;;;19.40;63.70;;;;;;5009157;28;20236;-40
2021/10/28 00:59:57;;;;;;;2.80;1.70;;;19.40;63.30;;;;;;5008468;28;20288;-44
2021/10/28 01:02:38;;;;;;;1.73;1.63;;;19.50;62.90;;;;;;5008084;28;20259;-44
2021/10/28 01:05:09;;;;;;;1.73;1.63;;;19.60;62.70;;;;;;5010642;28;20236;-42
2021/10/28 01:07:39;;;;;;;1.70;1.60;;;19.60;62.50;;;;;;5012725;28;20674;-43
2021/10/28 01:10:11;;;;;;;1.95;1.73;;;19.70;62.30;;;;;;5005979;28;20288;-41
2021/10/28 01:12:41;;;;;;;2.13;1.77;;;19.80;62.10;;;;;;4999823;28;20249;-40
2021/10/28 01:15:16;;;;;;;2.28;1.48;;;19.90;61.90;;;;;;4998772;28;20204;-45
2021/10/28 01:17:48;;;;;;;2.72;1.50;;;19.90;61.60;;;;;;4996927;28;20282;-44
2021/10/28 01:20:20;;;;;;;2.33;1.80;;;20.00;61.40;;;;;;4995723;28;20271;-47
2021/10/28 01:22:51;;;;;;;2.53;1.50;;;20.10;61.20;;;;;;5012514;28;20307;-43
2021/10/28 01:25:21;;;;;;;2.97;1.60;;;20.10;61.00;;;;;;5011417;28;20287;-44
2021/10/28 01:27:52;;;;;;;1.40;1.30;;;20.20;60.90;;;;;;5000209;28;20236;-44
2021/10/28 01:30:22;;;;;;;1.60;1.50;;;20.20;60.70;;;;;;5006488;28;20237;-41
2021/10/28 01:32:53;;;;;;;1.70;1.33;;;20.20;60.50;;;;;;5009153;28;20256;-41
2021/10/28 01:35:25;;;;;;;1.50;1.40;;;20.30;60.40;;;;;;5009263;28;20237;-44
2021/10/28 01:37:55;;;;;;;2.67;1.50;;;20.40;60.30;;;;;;5010756;28;20256;-42
2021/10/28 01:40:26;;;;;;;3.35;1.50;;;20.40;60.10;;;;;;5011679;28;20280;-41
2021/10/28 01:42:57;;;;;;;1.67;1.20;;;20.50;60.10;;;;;;5012332;28;20260;-43
2021/10/28 01:45:27;;;;;;;2.53;1.40;;;20.50;59.90;;;;;;5014155;28;20587;-44
2021/10/28 01:47:58;;;;;;;2.38;1.40;;;20.60;59.80;;;;;;5010460;28;20288;-43
2021/10/28 01:50:32;;;;;;;1.52;1.30;;;20.60;59.70;;;;;;5010505;28;20602;-43
2021/10/28 01:53:02;;;;;;;1.08;1.00;;;20.60;59.60;;;;;;5010702;28;20590;-43
2021/10/28 01:55:33;;;;;;;1.67;1.33;;;20.70;59.60;;;;;;5010111;28;20229;-43
2021/10/28 01:58:04;;;;;;;1.35;1.25;;;20.70;59.40;;;;;;5010324;28;20255;-45
2021/10/28 02:00:34;;;;;;;2.10;1.45;;;20.80;59.30;;;;;;5010641;28;20228;-44
2021/10/28 02:03:05;;;;;;;1.65;1.23;;;20.80;59.20;;;;;;5015446;28;20248;-43
2021/10/28 02:05:37;;;;;;;2.15;1.40;;;20.80;59.00;;;;;;4995655;28;20239;-44
2021/10/28 02:08:08;;;;;;;1.30;1.20;;;20.90;59.00;;;;;;5010361;28;20201;-44
2021/10/28 02:10:40;;;;;;;1.20;1.10;;;20.90;58.90;;;;;;5009203;28;20288;-43
2021/10/28 02:13:10;;;;;;;1.33;1.23;;;21.00;58.90;;;;;;5009105;28;20225;-43
2021/10/28 02:15:41;;;;;;;1.25;1.15;;;21.00;58.80;;;;;;5010160;28;20292;-41
2021/10/28 02:18:12;;;;;;;1.45;1.20;;;21.10;58.60;;;;;;5004235;28;20295;-42
2021/10/28 02:20:45;;;;;;;1.92;1.10;;;21.10;58.60;;;;;;5000614;28;20197;-42
2021/10/28 02:23:16;;;;;;;1.45;1.17;;;21.10;58.60;;;;;;5009639;28;20216;-43
2021/10/28 02:25:46;;;;;;;1.17;1.08;;;21.10;58.40;;;;;;5010015;28;20229;-43
2021/10/28 02:28:17;;;;;;;2.40;1.13;;;21.20;58.40;;;;;;5010449;28;20288;-44
2021/10/28 02:30:47;;;;;;;1.20;1.10;;;21.20;58.30;;;;;;4994052;28;20236;-43
2021/10/28 02:33:18;;;;;;;1.50;1.20;;;21.20;58.20;;;;;;5009740;28;20237;-41
2021/10/28 02:35:50;;;;;;;1.05;0.95;;;21.30;58.20;;;;;;5009323;28;20268;-40
2021/10/28 02:38:20;;;;;;;0.90;0.90;;;21.30;58.10;;;;;;5010195;28;20235;-42
2021/10/28 02:40:51;;;;;;;1.30;1.13;;;21.30;58.10;;;;;;5009435;28;20283;-44
2021/10/28 02:43:21;;;;;;;1.20;1.10;;;21.40;58.10;;;;;;5035008;22;20263;-43
2021/10/28 02:45:52;;;;;;;1.67;1.23;;;21.40;58.00;;;;;;5041713;28;20273;-44
2021/10/28 02:48:22;;;;;;;1.20;1.10;;;21.40;58.00;;;;;;5028551;28;20196;-44
2021/10/28 02:50:55;;;;;;;3.72;1.23;;;21.40;57.90;;;;;;5029084;28;20238;-43
2021/10/28 02:53:25;;;;;;;1.50;1.13;;;21.50;57.80;;;;;;5030686;28;20266;-47
2021/10/28 02:55:56;;;;;;;1.65;1.00;;;21.50;57.70;;;;;;5027807;28;20236;-44
2021/10/28 02:58:26;;;;;;;1.58;1.17;;;21.50;57.60;;;;;;5029277;28;20232;-44
2021/10/28 03:00:57;;;;;;;1.10;0.90;;;21.50;57.60;;;;;;5030519;28;20285;-48
2021/10/28 03:03:28;;;;;;;1.85;1.02;;;21.50;57.40;;;;;;5017367;28;20795;-44
2021/10/28 03:06:00;;;;;;;0.70;0.70;;;21.50;57.30;;;;;;5020147;28;20223;-44
2021/10/28 03:08:32;;;;;;;1.23;1.00;;;21.50;57.20;;;;;;5028503;28;20262;-48
2021/10/28 03:11:06;;;;;;;1.45;1.10;;;21.60;57.20;;;;;;5012716;28;20197;-49
2021/10/28 03:13:37;;;;;;;2.05;0.90;;;21.60;57.10;;;;;;5030416;28;20680;-44
2021/10/28 03:16:17;;;;;;;0.80;0.80;;;21.60;57.10;;;;;;5018975;28;20195;-44
2021/10/28 03:27:09;;;;;;;1.15;0.90;;;21.60;56.80;;;;;;4986585;28;20224;-45
2021/10/28 03:29:39;;;;;;;0.75;0.75;;;21.60;56.70;;;;;;5014840;28;20229;-47
2021/10/28 03:32:11;;;;;;;1.23;0.80;;;21.60;56.60;;;;;;5023331;28;20239;-46
2021/10/28 03:34:42;;;;;;;1.02;0.80;;;21.60;56.50;;;;;;5027951;28;20423;-45
2021/10/28 03:37:18;;;;;;;1.10;0.80;;;21.60;56.40;;;;;;5027911;28;20656;-44
2021/10/28 03:40:06;;;;;;;0.68;0.68;;;21.60;56.30;;;;;;5024990;28;20239;-47
2021/10/28 04:17:13;;;;;;;0.70;0.70;;;21.40;55.70;;;;;;5010165;28;20235;-37
2021/10/28 04:31:06;;;;;;;1.02;0.88;;;21.20;55.60;;;;;;5005493;28;20204;-37
2021/10/28 04:33:41;;;;;;;1.25;0.88;;;21.20;55.50;;;;;;5009718;28;20231;-37
2021/10/28 04:36:13;;;;;;;1.02;1.00;;;21.20;55.60;;;;;;5011331;28;20296;-37
2021/10/28 04:38:43;;;;;;;1.02;1.02;;;21.20;55.60;;;;;;5014439;28;20224;-37
2021/10/28 04:41:15;;;;;;;1.05;1.00;;;21.10;55.70;;;;;;5017679;28;20243;-37
2021/10/28 04:43:46;;;;;;;1.13;0.90;;;21.20;55.80;;;;;;5034428;28;20248;-37
2021/10/28 04:46:16;;;;;;;1.33;1.00;;;21.10;55.70;;;;;;5025721;28;20284;-37
2021/10/28 04:48:47;;;;;;;0.90;0.90;;;21.10;55.70;;;;;;5013910;28;20229;-37
2021/10/28 04:51:18;;;;;;;0.95;0.80;;;21.10;55.60;;;;;;5013383;28;20250;-37
2021/10/28 04:53:48;;;;;;;1.60;0.90;;;21.10;55.50;;;;;;5013645;28;20672;-37
2021/10/28 04:56:21;;;;;;;1.00;0.90;;;21.10;55.60;;;;;;5001803;28;20279;-37
2021/10/28 04:58:51;;;;;;;0.82;0.80;;;21.00;55.50;;;;;;4991257;28;20201;-37
2021/10/28 05:01:23;;;;;;;0.70;0.70;;;21.00;55.60;;;;;;4994415;28;20915;-37
2021/10/28 05:03:53;;;;;;;0.80;0.80;;;21.00;55.60;;;;;;4994074;28;20226;-37
2021/10/28 05:06:24;;;;;;;1.10;1.00;;;21.00;55.60;;;;;;5004034;28;20263;-37
2021/10/28 05:08:54;;;;;;;1.10;1.00;;;21.00;55.60;;;;;;5013194;28;20275;-37
2021/10/28 05:11:28;;;;;;;1.55;1.30;;;20.90;55.60;;;;;;5017590;28;20251;-37
2021/10/28 05:13:58;;;;;;;1.30;1.17;;;20.90;55.60;;;;;;5033160;28;20200;-37
2021/10/28 05:16:29;;;;;;;4.18;1.52;;;20.90;55.60;;;;;;5006486;28;20783;-37
2021/10/28 05:18:59;;;;;;;0.90;0.90;;;20.90;55.70;;;;;;4985458;28;20243;-36
2021/10/28 05:21:30;;;;;;;2.17;1.30;;;20.80;55.60;;;;;;4990782;28;20660;-37
2021/10/28 05:24:00;;;;;;;2.60;1.40;;;20.90;55.70;;;;;;4994781;28;20312;-36
2021/10/28 05:26:32;;;;;;;1.88;1.20;;;20.80;55.60;;;;;;4991096;28;20197;-37
2021/10/28 05:29:03;;;;;;;1.58;1.30;;;20.80;55.70;;;;;;4990622;28;20296;-37
2021/10/28 05:31:33;;;;;;;1.75;1.30;;;20.80;55.70;;;;;;4996679;28;20260;-37
2021/10/28 05:34:04;;;;;;;2.13;1.45;;;20.70;55.60;;;;;;4991415;28;20206;-37
2021/10/28 05:36:34;;;;;;;1.60;1.50;;;20.70;55.60;;;;;;4990121;28;20220;-36
2021/10/28 05:39:05;;;;;;;1.48;1.33;;;20.70;55.60;;;;;;4991022;28;20244;-37
2021/10/28 05:41:37;;;;;;;1.63;1.52;;;20.70;55.60;;;;;;4995241;28;20248;-37
2021/10/28 05:44:08;;;;;;;1.35;1.25;;;20.70;55.70;;;;;;4997497;28;20685;-37
2021/10/28 05:46:38;;;;;;;1.42;1.33;;;20.70;55.70;;;;;;4997353;28;20696;-37
2021/10/28 05:49:09;;;;;;;1.70;1.20;;;20.70;55.70;;;;;;4988793;28;20264;-40
2021/10/28 05:51:40;;;;;;;2.47;1.00;;;20.60;55.60;;;;;;4990488;28;20264;-41
2021/10/28 05:54:10;;;;;;;2.35;1.27;;;20.60;55.50;;;;;;4988332;28;20295;-42
2021/10/28 05:56:42;;;;;;;1.05;0.93;;;20.50;55.60;;;;;;4994115;28;20723;-38
2021/10/28 05:59:13;;;;;;;2.28;1.05;;;20.40;55.60;;;;;;4991354;28;20205;-36
2021/10/28 06:01:43;;;;;;;1.02;0.93;;;20.20;55.80;;;;;;4999564;28;20248;-36
2021/10/28 06:04:14;;;;;;;1.00;0.90;;;20.10;56.00;;;;;;4990015;28;20311;-37
2021/10/28 06:06:44;;;;;;;1.58;0.85;;;20.10;56.10;;;;;;4992773;28;20245;-37
2021/10/28 06:09:15;;;;;;;1.20;1.10;;;20.00;56.30;;;;;;4994827;28;20636;-36
2021/10/28 06:11:47;;;;;;;1.55;1.23;;;20.00;56.40;;;;;;4993244;28;20302;-36
2021/10/28 06:14:23;;;;;;;1.90;1.40;;;20.00;56.40;;;;;;4993269;28;20205;-36
2021/10/28 06:16:57;;;;;;;1.60;1.30;;;20.00;56.50;;;;;;4990223;28;20197;-36
2021/10/28 06:19:28;;;;;;;1.30;1.20;;;20.00;56.50;;;;;;4990040;28;20200;-36
2021/10/28 06:21:58;;;;;;;3.22;1.60;;;20.00;56.60;;;;;;4989042;28;20249;-36
2021/10/28 06:24:29;;;;;;;1.13;1.02;;;20.00;56.60;;;;;;4988628;28;20221;-37
2021/10/28 06:27:01;;;;;;;1.98;1.60;;;19.90;56.70;;;;;;4995652;28;20284;-36
2021/10/28 06:29:32;;;;;;;1.80;1.70;;;19.90;56.70;;;;;;4988570;28;20229;-37
2021/10/28 06:32:02;;;;;;;1.70;1.60;;;20.00;56.70;;;;;;4989004;28;20222;-37
2021/10/28 06:34:38;;;;;;;2.17;1.67;;;20.00;56.70;;;;;;4988594;28;20213;-36
2021/10/28 06:37:09;;;;;;;1.85;1.65;;;19.90;56.60;;;;;;4995254;28;20554;-37
2021/10/28 06:39:41;;;;;;;1.80;1.70;;;20.00;56.70;;;;;;4991475;28;20222;-36
2021/10/28 06:42:14;;;;;;;2.10;1.90;;;20.00;56.70;;;;;;5001553;28;20217;-36
2021/10/28 06:44:45;;;;;;;1.58;1.48;;;20.00;56.80;;;;;;4987793;28;20221;-36
2021/10/28 06:47:15;;;;;;;2.00;1.90;;;20.00;56.80;;;;;;4988006;28;20205;-36
2021/10/28 06:49:46;;;;;;;2.47;2.28;;;20.00;56.80;;;;;;4988845;28;20693;-38
2021/10/28 06:52:16;;;;;;;3.60;2.55;;;20.00;56.80;;;;;;4987045;28;20311;-39
2021/10/28 06:54:47;;;;;;;3.55;2.50;;;20.00;56.90;;;;;;4992529;28;20207;-37
2021/10/28 07:02:56;;;;;;;6.03;3.70;;;20.00;56.90;;;;;;4988704;28;20335;-44
2021/10/28 07:05:27;;;;;;;5.25;3.47;;;20.00;56.90;;;;;;4991360;28;20331;-41
2021/10/28 07:07:57;;;;;;;5.60;3.33;;;20.00;57.00;;;;;;4987379;28;20256;-39
2021/10/28 07:10:29;;;;;;;4.30;3.28;;;20.00;57.00;;;;;;4989052;28;20579;-36
2021/10/28 07:13:05;;;;;;;5.45;3.95;;;20.00;56.90;;;;;;4992291;28;20220;-40
2021/10/28 07:15:39;;;;;;;4.65;3.65;;;20.00;57.00;;;;;;4991621;28;20213;-37
2021/10/28 07:18:25;;;;;;;5.03;3.83;;;20.00;57.00;;;;;;4983093;28;20236;-40
2021/10/28 07:21:25;;;;;;;4.38;3.90;;;20.00;57.00;;;;;;4987160;28;20291;-36
2021/10/28 07:32:34;;;;;;;5.43;4.55;;;20.00;56.90;;;;;;4986782;28;20672;-37
2021/10/28 07:35:24;;;;;;;5.88;4.43;;;20.00;57.00;;;;;;4993731;28;20197;-37
2021/10/28 07:38:31;;;;;;;6.60;4.88;;;20.00;56.90;;;;;;4988074;28;20204;-41
2021/10/28 07:57:57;;;;;;;6.28;5.53;;;19.90;56.90;;;;;;4962653;28;20211;-41
2021/10/28 08:04:46;;;;;;;7.45;6.00;;;20.00;57.00;;;;;;5007171;28;20212;-37
2021/10/28 08:17:56;;;;;;;6.50;5.90;;;19.90;56.90;;;;;;5008941;28;20302;-44
2021/10/28 08:20:49;;;;;;;8.23;5.80;;;19.90;56.90;;;;;;5007341;28;20653;-40
2021/10/28 08:23:30;;;;;;;6.60;6.00;;;19.90;56.90;;;;;;5002783;28;20200;-44
2021/10/28 08:28:49;;;;;;;7.85;6.30;;;19.90;57.00;;;;;;4998822;28;20687;-46
2021/10/28 08:31:21;;;;;;;6.97;5.97;;;19.80;56.90;;;;;;5012720;28;20216;-44
2021/10/28 08:33:52;;;;;;;6.50;5.85;;;19.90;57.60;;;;;;5011631;28;20622;-43
2021/10/28 08:36:27;;;;;;;6.22;5.63;;;19.80;57.00;;;;;;5011518;28;20284;-43
2021/10/28 08:38:58;;;;;;;6.03;5.50;;;19.80;57.00;;;;;;5001575;28;20209;-38
2021/10/28 08:41:29;;;;;;;6.57;5.97;;;19.80;56.90;;;;;;5007816;28;20331;-41
2021/10/28 08:44:00;;;;;;;7.03;6.18;;;19.80;56.90;;;;;;5011909;28;20263;-45
2021/10/28 08:46:31;;;;;;;6.68;5.78;;;19.80;56.90;;;;;;5011458;28;20225;-41
2021/10/28 08:49:04;;;;;;;5.93;5.32;;;19.80;56.90;;;;;;5011892;28;20229;-39
2021/10/28 08:51:45;;;;;;;5.65;5.15;;;19.80;56.90;;;;;;4997266;28;20231;-46
2021/10/28 08:57:27;;;;;;;5.78;5.18;;;19.80;56.90;;;;;;5002064;28;20213;-45
2021/10/28 09:00:20;;;;;;;5.82;5.22;;;19.70;56.90;;;;;;4996812;28;20201;-40
2021/10/28 09:25:41;;;;;;;5.32;4.82;;;19.70;56.90;;;;;;4997011;28;20263;-41
2021/10/28 09:28:31;;;;;;;4.93;4.43;;;19.70;56.90;;;;;;5011854;28;20205;-41
2021/10/28 09:31:11;;;;;;;5.45;4.95;;;19.70;57.00;;;;;;4995546;28;20237;-42
2021/10/28 09:33:51;;;;;;;4.90;4.43;;;19.70;56.90;;;;;;5011535;28;20235;-38
2021/10/28 09:45:02;;;;;;;5.03;4.60;;;19.60;56.80;;;;;;5011133;28;20208;-38
2021/10/28 09:47:43;;;;;;;4.47;3.90;;;19.60;56.80;;;;;;4995569;28;20207;-45
2021/10/28 09:50:18;;;;;;;5.10;4.28;;;19.60;56.90;;;;;;5010987;28;20655;-39
2021/10/28 09:53:09;;;;;;;4.65;4.18;;;19.60;56.90;;;;;;4998481;28;20300;-36
2021/10/28 09:58:36;;;;;;;4.90;4.40;;;19.60;56.90;;;;;;5010718;28;20867;-36
2021/10/28 10:01:09;;;;;;;4.70;4.28;;;19.60;56.80;;;;;;5009567;28;20256;-36
2021/10/28 10:03:47;;;;;;;5.00;4.00;;;19.50;56.90;;;;;;5008789;28;20204;-36
2021/10/28 10:06:25;;;;;;;4.60;4.20;;;19.60;56.90;;;;;;5010688;28;20371;-36
2021/10/28 10:08:57;;;;;;;4.30;3.90;;;19.50;56.80;;;;;;5003639;28;20209;-36
2021/10/28 10:11:28;;;;;;;4.40;4.00;;;19.60;56.90;;;;;;5000500;28;20304;-36
2021/10/28 10:14:01;;;;;;;4.63;4.22;;;19.50;57.50;;;;;;5009568;28;20217;-46
2021/10/28 10:16:32;;;;;;;4.38;3.97;;;19.50;56.90;;;;;;5011530;28;20262;-38
2021/10/28 10:19:03;;;;;;;4.13;3.72;;;19.50;56.90;;;;;;4995313;28;20205;-38
2021/10/28 10:21:42;;;;;;;4.65;4.18;;;19.50;56.80;;;;;;5009618;28;20299;-39
2021/10/28 10:24:22;;;;;;;4.25;3.78;;;19.50;56.90;;;;;;4995073;28;20213;-42
2021/10/28 12:01:22;;;;;;;3.58;3.28;;;19.40;56.80;;;;;;5007031;28;20207;-37
2021/10/28 12:25:25;;;;;;;3.10;2.90;;;19.20;56.70;;;;;;4998264;28;20212;-38
2021/10/28 12:28:34;;;;;;;3.15;2.85;;;19.20;56.70;;;;;;5006337;28;20204;-40
2021/10/28 12:45:46;;;;;;;3.28;2.97;;;19.20;56.80;;;;;;5009557;28;20240;-41
2021/10/28 13:54:02;;;;;;;2.45;2.25;;;19.10;56.70;;;;;;4995976;28;20212;-38
2021/10/28 14:22:12;;;;;;;2.85;2.58;;;19.00;56.90;;;;;;5000561;28;20688;-39
2021/10/28 15:29:26;;;;;;;2.42;2.22;;;18.80;56.60;;;;;;4999694;28;20236;-43
2021/10/28 15:37:49;;;;;;;2.33;2.13;;;18.80;56.80;;;;;;4990563;28;20573;-45
2021/10/28 15:40:28;;;;;;;2.20;2.00;;;18.80;56.80;;;;;;5008108;28;20193;-38
2021/10/28 15:57:10;;;;;;;2.40;2.20;;;18.70;56.80;;;;;;4964130;28;20211;-42
2021/10/28 15:59:54;;;;;;;2.30;2.10;;;18.70;56.80;;;;;;4995354;28;20866;-42
2021/10/28 16:21:54;;;;;;;2.40;2.20;;;18.70;56.80;;;;;;5008908;28;20274;-45
2021/10/28 16:24:28;;;;;;;2.13;2.03;;;18.70;56.80;;;;;;5009126;28;20223;-38
2021/10/28 16:26:59;;;;;;;2.20;2.00;;;18.70;56.80;;;;;;4993393;28;20261;-39
2021/10/28 16:29:30;;;;;;;2.00;1.88;;;18.70;56.90;;;;;;5004767;28;20233;-36
2021/10/28 16:32:01;;;;;;;2.13;2.03;;;18.70;56.90;;;;;;5011617;28;20261;-38
2021/10/28 16:34:32;;;;;;;1.92;1.83;;;18.60;56.80;;;;;;5016851;28;20255;-37
2021/10/28 16:37:03;;;;;;;1.90;1.80;;;18.70;56.90;;;;;;5011078;28;20225;-38
2021/10/28 16:39:35;;;;;;;2.20;2.00;;;18.60;56.80;;;;;;5011039;28;20228;-37
2021/10/28 16:42:06;;;;;;;2.45;2.25;;;18.70;56.80;;;;;;5010287;28;20240;-39
2021/10/28 16:44:41;;;;;;;1.98;1.88;;;18.70;56.80;;;;;;5011564;28;20858;-39
2021/10/28 16:47:12;;;;;;;2.08;1.88;;;18.70;56.80;;;;;;5015030;28;20215;-41
2021/10/28 16:49:42;;;;;;;2.10;1.95;;;18.70;56.80;;;;;;5011950;28;20288;-40
2021/10/28 16:52:13;;;;;;;1.88;1.77;;;18.70;56.70;;;;;;5009831;28;20267;-40
2021/10/28 16:54:46;;;;;;;1.95;1.80;;;18.70;56.70;;;;;;5010864;28;20243;-37
2021/10/28 16:57:16;;;;;;;1.92;1.80;;;18.70;56.70;;;;;;5009878;28;20237;-40
2021/10/28 16:59:47;;;;;;;1.83;1.73;;;18.70;56.70;;;;;;5011121;28;20731;-38
2021/10/28 17:02:17;;;;;;;1.85;1.75;;;18.70;56.70;;;;;;5011272;28;20244;-37
2021/10/28 17:04:48;;;;;;;2.10;2.00;;;18.70;56.80;;;;;;5011289;28;20209;-36
2021/10/28 17:07:18;;;;;;;2.10;1.90;;;18.60;56.80;;;;;;5010329;28;20248;-38
2021/10/28 17:09:52;;;;;;;1.75;1.60;;;18.60;56.80;;;;;;5009947;28;20236;-37
2021/10/28 17:12:23;;;;;;;1.80;1.70;;;18.60;56.80;;;;;;5009985;28;20221;-42
2021/10/28 17:14:53;;;;;;;1.70;1.60;;;18.60;56.80;;;;;;5010914;28;20201;-43
2021/10/28 17:17:24;;;;;;;2.20;1.77;;;18.60;56.80;;;;;;5014351;28;20269;-37
2021/10/28 17:19:54;;;;;;;2.70;1.90;;;18.60;56.90;;;;;;5016793;28;20232;-37
2021/10/28 17:22:25;;;;;;;1.60;1.50;;;18.60;56.90;;;;;;5008732;28;20739;-37
2021/10/28 17:24:58;;;;;;;1.80;1.70;;;18.60;56.80;;;;;;5008949;28;20283;-39
2021/10/28 17:27:29;;;;;;;1.75;1.65;;;18.60;56.80;;;;;;5010317;28;20236;-44
2021/10/28 17:30:01;;;;;;;1.70;1.60;;;18.60;56.80;;;;;;4993110;28;20194;-41
2021/10/28 17:32:31;;;;;;;2.08;1.80;;;18.60;56.80;;;;;;5015052;28;20291;-38
2021/10/28 17:35:02;;;;;;;1.70;1.60;;;18.60;56.70;;;;;;5011011;28;20626;-36
2021/10/28 17:37:32;;;;;;;1.98;1.88;;;18.60;56.70;;;;;;4997314;28;20245;-37
2021/10/28 17:40:05;;;;;;;2.25;1.90;;;18.60;56.70;;;;;;5005907;28;20196;-36
2021/10/28 17:42:37;;;;;;;1.80;1.70;;;18.60;56.70;;;;;;5009250;28;20213;-37
2021/10/28 17:45:11;;;;;;;1.65;1.55;;;18.60;56.70;;;;;;5009051;28;20255;-36
2021/10/28 17:47:41;;;;;;;2.13;1.92;;;18.60;56.70;;;;;;5009610;28;20763;-36
2021/10/28 17:50:12;;;;;;;2.33;1.80;;;18.60;56.70;;;;;;5010840;28;20256;-37
2021/10/28 17:52:43;;;;;;;3.67;1.90;;;18.60;56.70;;;;;;4994748;28;20256;-40
2021/10/28 17:55:15;;;;;;;1.90;1.80;;;18.60;56.70;;;;;;5010369;28;20193;-39
2021/10/28 17:57:49;;;;;;;2.20;2.00;;;18.60;56.80;;;;;;5010154;28;20240;-38
2021/10/28 18:00:21;;;;;;;4.20;1.90;;;18.60;56.80;;;;;;5008453;28;20212;-40
2021/10/28 18:02:52;;;;;;;1.90;1.80;;;18.60;56.80;;;;;;5010523;28;20263;-41
2021/10/28 18:05:22;;;;;;;2.38;1.40;;;18.70;56.90;;;;;;5015291;28;20212;-39
2021/10/28 18:07:53;;;;;;;1.73;1.60;;;18.70;56.80;;;;;;5005160;28;20245;-38
2021/10/28 18:10:25;;;;;;;1.70;1.60;;;18.70;56.90;;;;;;4998051;28;20571;-42
2021/10/28 18:12:56;;;;;;;1.92;1.77;;;18.60;56.80;;;;;;4996291;28;20780;-39
2021/10/28 18:15:28;;;;;;;1.70;1.60;;;18.70;56.80;;;;;;5010716;28;20251;-37
2021/10/28 18:17:59;;;;;;;2.13;1.83;;;18.70;56.90;;;;;;5001735;28;20238;-38
2021/10/28 18:20:30;;;;;;;1.50;1.40;;;18.70;56.90;;;;;;5009940;28;20284;-38
2021/10/28 18:23:00;;;;;;;1.60;1.50;;;18.70;56.80;;;;;;5009655;28;20279;-42
2021/10/28 18:25:33;;;;;;;2.40;1.80;;;18.70;56.80;;;;;;5009486;28;20201;-37
2021/10/28 18:28:05;;;;;;;2.70;1.70;;;18.70;57.00;;;;;;4996225;28;20476;-39
2021/10/28 18:30:37;;;;;;;1.70;1.60;;;18.60;58.20;;;;;;5002033;28;20202;-40
2021/10/28 18:33:09;;;;;;;2.08;1.77;;;18.60;58.10;;;;;;5009411;28;20304;-36
2021/10/28 18:35:40;;;;;;;2.90;1.80;;;18.70;57.90;;;;;;5009209;28;20272;-44
2021/10/28 18:38:12;;;;;;;1.67;1.58;;;18.80;57.80;;;;;;5005061;28;20200;-43
2021/10/28 18:40:45;;;;;;;2.35;1.60;;;18.80;57.70;;;;;;4993903;28;20197;-36
2021/10/28 18:43:17;;;;;;;3.90;1.67;;;18.80;57.70;;;;;;5010533;28;20273;-41
2021/10/28 18:45:47;;;;;;;1.73;1.60;;;18.90;57.90;;;;;;5009876;28;20688;-41
2021/10/28 18:48:18;;;;;;;1.70;1.58;;;18.90;58.10;;;;;;5009306;28;20302;-43
2021/10/28 18:50:48;;;;;;;2.55;1.88;;;18.90;58.00;;;;;;5001668;28;20299;-36
2021/10/28 18:53:19;;;;;;;3.75;1.80;;;18.90;58.00;;;;;;5002242;28;20232;-36
2021/10/28 18:55:51;;;;;;;2.60;2.25;;;18.90;58.00;;;;;;5009274;28;20193;-39
2021/10/28 18:58:22;;;;;;;3.97;2.00;;;18.90;58.00;;;;;;5008947;28;20315;-38
2021/10/28 19:00:52;;;;;;;2.90;2.00;;;18.90;58.00;;;;;;5008474;28;20666;-36
2021/10/28 19:03:23;;;;;;;2.80;2.20;;;19.00;58.10;;;;;;5010281;28;20254;-37
2021/10/28 19:05:55;;;;;;;2.35;1.80;;;19.00;58.10;;;;;;4998416;28;20239;-42
2021/10/28 19:08:26;;;;;;;2.78;2.42;;;19.00;58.00;;;;;;4990979;28;20225;-45
2021/10/28 19:11:00;;;;;;;2.13;1.80;;;19.00;58.00;;;;;;5007551;28;20292;-44
2021/10/28 19:13:30;;;;;;;3.03;1.90;;;19.10;58.00;;;;;;5007589;28;20383;-44
2021/10/28 19:16:01;;;;;;;2.47;1.73;;;19.00;57.90;;;;;;5008765;28;20280;-42
2021/10/28 19:18:32;;;;;;;3.72;2.58;;;19.10;57.80;;;;;;5008407;28;20236;-44
2021/10/28 19:21:02;;;;;;;3.60;2.63;;;19.10;58.40;;;;;;5008946;28;20240;-42
2021/10/28 19:23:33;;;;;;;3.35;2.70;;;19.10;58.00;;;;;;5008362;28;20240;-42
2021/10/28 19:26:06;;;;;;;3.35;2.40;;;19.10;58.20;;;;;;5009143;28;20201;-43
2021/10/28 19:28:36;;;;;;;3.65;2.45;;;19.10;58.20;;;;;;4995079;28;20672;-45
2021/10/28 19:31:10;;;;;;;2.53;1.92;;;19.10;58.20;;;;;;4994851;28;20259;-39
2021/10/28 19:33:45;;;;;;;2.28;2.00;;;19.10;58.70;;;;;;5007387;28;20200;-39
2021/10/28 19:36:23;;;;;;;2.90;2.15;;;19.20;60.00;;;;;;5007645;28;20205;-35
2021/10/28 19:39:15;;;;;;;3.33;2.10;;;19.20;59.40;;;;;;5008617;28;20204;-35
2021/10/28 19:47:20;;;;;;;3.40;1.58;;;19.40;59.30;;;;;;5008405;28;20270;-39
2021/10/28 19:49:51;;;;;;;2.80;1.92;;;19.40;59.30;;;;;;5008519;28;20665;-38
2021/10/28 19:52:21;;;;;;;2.60;1.65;;;19.40;59.30;;;;;;5002352;28;20228;-41
2021/10/28 19:54:53;;;;;;;2.28;1.70;;;19.40;59.30;;;;;;4994151;28;20270;-43
2021/10/28 19:57:27;;;;;;;1.65;1.42;;;19.40;59.30;;;;;;5028771;22;20232;-43
2021/10/28 20:00:05;;;;;;;3.05;1.67;;;19.40;59.30;;;;;;5009088;28;20193;-44
2021/10/28 20:02:51;;;;;;;1.52;1.42;;;19.50;59.40;;;;;;4992398;28;20583;-43
2021/10/28 20:05:30;;;;;;;2.65;1.60;;;19.50;59.40;;;;;;5009023;28;20204;-44
2021/10/28 20:13:57;;;;;;;1.67;1.58;;;19.50;59.40;;;;;;5012454;28;20247;-43
2021/10/28 20:22:01;;;;;;;2.05;1.50;;;19.60;59.50;;;;;;5011565;28;20223;-43
2021/10/28 20:24:31;;;;;;;1.92;1.73;;;19.60;59.50;;;;;;5002430;28;20256;-43
2021/10/28 20:27:02;;;;;;;1.75;1.35;;;19.60;59.50;;;;;;5005303;28;20252;-43
2021/10/28 20:29:34;;;;;;;1.60;1.50;;;19.60;59.50;;;;;;5011167;28;20232;-43
2021/10/28 20:32:05;;;;;;;1.50;1.40;;;19.60;59.50;;;;;;5010020;28;20311;-44
2021/10/28 20:34:38;;;;;;;1.10;1.00;;;19.70;59.50;;;;;;4998836;28;20266;-45
2021/10/28 20:37:08;;;;;;;1.48;1.38;;;19.70;59.40;;;;;;5008704;28;20197;-45
2021/10/28 20:39:44;;;;;;;1.42;1.33;;;19.70;59.30;;;;;;5012503;28;20215;-45
2021/10/28 20:42:17;;;;;;;1.67;1.58;;;19.70;59.20;;;;;;5012436;28;20297;-45
2021/10/28 20:44:51;;;;;;;1.30;1.20;;;19.70;59.20;;;;;;5012065;28;20204;-46
2021/10/28 20:47:22;;;;;;;1.20;1.10;;;19.80;59.10;;;;;;5011171;28;20275;-45
2021/10/28 20:49:52;;;;;;;1.48;1.20;;;19.80;59.00;;;;;;5003139;28;20686;-46
2021/10/28 20:52:23;;;;;;;1.05;1.00;;;19.80;58.90;;;;;;5004770;28;20765;-47
2021/10/28 20:54:55;;;;;;;1.20;1.10;;;19.90;58.90;;;;;;5011807;28;20208;-43
2021/10/28 20:57:26;;;;;;;1.20;1.10;;;19.90;58.90;;;;;;5025127;23;20251;-40
2021/10/28 20:59:59;;;;;;;1.30;1.20;;;19.90;59.20;;;;;;5011873;28;20208;-41
2021/10/28 21:02:29;;;;;;;1.27;1.10;;;20.00;60.60;;;;;;5012265;28;21518;-52
2021/10/28 21:05:00;;;;;;;1.83;1.00;;;20.10;60.70;;;;;;5012087;28;20290;-46
2021/10/28 21:07:30;;;;;;;1.05;0.95;;;20.10;60.30;;;;;;5011259;28;20314;-40
2021/10/28 21:10:01;;;;;;;0.80;0.80;;;20.20;60.20;;;;;;5010842;28;20204;-43
2021/10/28 21:12:31;;;;;;;1.50;1.20;;;20.30;59.90;;;;;;5011402;28;20212;-41
2021/10/28 21:15:05;;;;;;;1.27;0.95;;;20.40;59.80;;;;;;5011089;28;20239;-48
2021/10/28 21:17:36;;;;;;;1.77;1.05;;;20.50;59.70;;;;;;5011088;28;20197;-41
2021/10/28 21:20:08;;;;;;;2.03;0.93;;;20.50;59.50;;;;;;5011205;28;20229;-42
2021/10/28 21:22:39;;;;;;;0.90;0.90;;;20.60;59.40;;;;;;5010499;28;20220;-41
2021/10/28 21:25:11;;;;;;;1.00;0.90;;;20.70;59.30;;;;;;5011644;28;20302;-40
2021/10/28 21:27:42;;;;;;;1.27;0.93;;;20.80;59.20;;;;;;5010865;28;20225;-40
2021/10/28 21:30:15;;;;;;;1.05;0.80;;;20.80;59.00;;;;;;5005533;28;20763;-45
2021/10/28 21:32:46;;;;;;;1.15;1.05;;;20.90;58.90;;;;;;5010917;28;20308;-40